createdAt,value
2019-05-30T00:00:16.801Z,0
2019-05-30T00:01:09.914Z,0
2019-05-30T00:02:09.919Z,0
2019-05-30T00:03:10.044Z,0
2019-05-30T00:04:09.999Z,0
2019-05-30T00:05:10.072Z,0
2019-05-30T00:06:10.163Z,0
2019-05-30T00:07:11.255Z,0
2019-05-30T00:08:10.177Z,0
2019-05-30T00:09:10.193Z,0
2019-05-30T00:10:10.210Z,0
2019-05-30T00:11:10.192Z,0
2019-05-30T00:12:10.375Z,0
2019-05-30T00:13:10.559Z,0
2019-05-30T00:14:10.616Z,0
2019-05-30T00:15:10.680Z,0
2019-05-30T00:16:10.710Z,0
2019-05-30T00:17:10.862Z,0
2019-05-30T00:18:10.933Z,0
2019-05-30T00:19:10.931Z,0
2019-05-30T00:20:11.075Z,0
2019-05-30T00:21:11.113Z,0
2019-05-30T00:22:11.180Z,0
2019-05-30T00:23:11.311Z,0
2019-05-30T00:24:11.243Z,0
2019-05-30T00:25:11.258Z,0
2019-05-30T00:26:11.254Z,0
2019-05-30T00:27:12.420Z,0
2019-05-30T00:28:11.385Z,0
2019-05-30T00:29:11.430Z,0
2019-05-30T00:30:23.666Z,0
2019-05-30T00:31:13.311Z,0
2019-05-30T00:32:11.618Z,0
2019-05-30T00:33:11.689Z,0
2019-05-30T00:34:11.705Z,0
2019-05-30T00:35:11.831Z,0
2019-05-30T00:36:11.978Z,0
2019-05-30T00:37:11.973Z,0
2019-05-30T00:38:12.007Z,0
2019-05-30T00:39:12.036Z,0
2019-05-30T00:40:12.006Z,0
2019-05-30T00:41:12.192Z,0
2019-05-30T00:42:12.171Z,0
2019-05-30T00:43:12.381Z,0
2019-05-30T00:44:12.399Z,0
2019-05-30T00:45:20.644Z,0
2019-05-30T00:46:12.401Z,0
2019-05-30T00:47:12.415Z,0
2019-05-30T00:48:12.556Z,0
2019-05-30T00:49:12.643Z,0
2019-05-30T00:50:12.662Z,0
2019-05-30T00:51:12.690Z,0
2019-05-30T00:52:12.876Z,0
2019-05-30T00:53:12.949Z,0
2019-05-30T00:54:14.001Z,0
2019-05-30T00:55:13.030Z,0
2019-05-30T00:56:13.093Z,0
2019-05-30T00:57:13.107Z,0
2019-05-30T00:58:13.097Z,0
2019-05-30T00:59:13.265Z,0
2019-05-30T01:00:13.295Z,0
2019-05-30T01:01:13.269Z,0
2019-05-30T01:02:13.420Z,0
2019-05-30T01:03:13.559Z,0
2019-05-30T01:04:13.580Z,0
2019-05-30T01:05:13.573Z,0
2019-05-30T01:06:13.566Z,0
2019-05-30T01:07:13.597Z,0
2019-05-30T01:08:13.629Z,0
2019-05-30T01:09:13.671Z,0
2019-05-30T01:10:13.735Z,0
2019-05-30T01:11:13.772Z,0
2019-05-30T01:12:13.849Z,0
2019-05-30T01:13:13.912Z,0
2019-05-30T01:14:15.052Z,0
2019-05-30T01:15:14.077Z,0
2019-05-30T01:16:14.062Z,0
2019-05-30T01:17:14.068Z,0
2019-05-30T01:18:14.064Z,0
2019-05-30T01:19:14.098Z,0
2019-05-30T01:20:14.264Z,0
2019-05-30T01:21:14.270Z,0
2019-05-30T01:22:14.294Z,0
2019-05-30T01:23:14.312Z,0
2019-05-30T01:24:14.379Z,0
2019-05-30T01:25:14.419Z,0
2019-05-30T01:26:14.429Z,0
2019-05-30T01:27:14.407Z,0
2019-05-30T01:28:14.629Z,0
2019-05-30T01:29:14.673Z,0
2019-05-30T01:30:14.838Z,0
2019-05-30T01:31:14.849Z,0
2019-05-30T01:32:15.004Z,0
2019-05-30T01:33:15.099Z,0
2019-05-30T01:34:15.230Z,0
2019-05-30T01:35:15.304Z,0
2019-05-30T01:36:15.331Z,0
2019-05-30T01:37:15.326Z,0
2019-05-30T01:38:15.469Z,0
2019-05-30T01:39:15.663Z,0
2019-05-30T01:40:15.728Z,0
2019-05-30T01:41:17.630Z,0
2019-05-30T01:42:15.969Z,0
2019-05-30T01:43:16.007Z,0
2019-05-30T01:44:15.990Z,0
2019-05-30T01:45:16.161Z,0
2019-05-30T01:46:16.165Z,0
2019-05-30T01:47:16.191Z,0
2019-05-30T01:48:16.213Z,0
2019-05-30T01:49:16.210Z,0
2019-05-30T01:50:16.246Z,0
2019-05-30T01:51:16.262Z,0
2019-05-30T01:52:16.251Z,0
2019-05-30T01:53:16.276Z,0
2019-05-30T01:54:16.440Z,0
2019-05-30T01:55:16.451Z,0
2019-05-30T01:56:16.537Z,0
2019-05-30T01:57:16.526Z,0
2019-05-30T01:58:16.692Z,0
2019-05-30T01:59:16.822Z,0
2019-05-30T02:00:20.961Z,0
2019-05-30T02:01:24.576Z,0
2019-05-30T02:02:17.000Z,0
2019-05-30T02:03:16.995Z,0
2019-05-30T02:04:17.129Z,0
2019-05-30T02:05:17.122Z,0
2019-05-30T02:06:17.268Z,0
2019-05-30T02:07:17.249Z,0
2019-05-30T02:08:17.411Z,0
2019-05-30T02:09:17.370Z,0
2019-05-30T02:10:17.525Z,0
2019-05-30T02:11:17.697Z,0
2019-05-30T02:12:17.712Z,0
2019-05-30T02:13:17.848Z,0
2019-05-30T02:14:17.986Z,0
2019-05-30T02:15:18.133Z,0
2019-05-30T02:16:18.310Z,0
2019-05-30T02:17:18.265Z,0
2019-05-30T02:18:18.402Z,0
2019-05-30T02:19:18.520Z,0
2019-05-30T02:20:18.653Z,0
2019-05-30T02:21:18.836Z,0
2019-05-30T02:22:18.815Z,0
2019-05-30T02:23:18.944Z,0
2019-05-30T02:24:19.099Z,0
2019-05-30T02:25:19.073Z,0
2019-05-30T02:26:19.253Z,0
2019-05-30T02:27:19.384Z,0
2019-05-30T02:28:20.496Z,0
2019-05-30T02:29:19.645Z,0
2019-05-30T02:30:19.779Z,0
2019-05-30T02:31:37.549Z,0
2019-05-30T02:32:20.856Z,0
2019-05-30T02:33:19.952Z,1
2019-05-30T02:34:20.017Z,1
2019-05-30T02:35:20.062Z,1
2019-05-30T02:36:20.127Z,0
2019-05-30T02:37:20.157Z,0
2019-05-30T02:38:20.182Z,1
2019-05-30T02:39:20.231Z,1
2019-05-30T02:40:20.311Z,1
2019-05-30T02:41:20.330Z,2
2019-05-30T02:42:20.410Z,1
2019-05-30T02:43:20.476Z,1
2019-05-30T02:44:20.540Z,2
2019-05-30T02:45:20.593Z,2
2019-05-30T02:46:20.645Z,2
2019-05-30T02:47:22.588Z,2
2019-05-30T02:48:20.844Z,3
2019-05-30T02:49:20.918Z,3
2019-05-30T02:50:20.982Z,3
2019-05-30T02:51:21.046Z,3
2019-05-30T02:52:21.131Z,4
2019-05-30T02:53:21.239Z,4
2019-05-30T02:54:21.289Z,5
2019-05-30T02:55:21.375Z,5
2019-05-30T02:56:21.397Z,6
2019-05-30T02:57:21.501Z,7
2019-05-30T02:58:21.553Z,8
2019-05-30T02:59:21.607Z,10
2019-05-30T03:00:21.664Z,10
2019-05-30T03:01:21.735Z,11
2019-05-30T03:02:21.853Z,12
2019-05-30T03:03:21.909Z,15
2019-05-30T03:04:21.956Z,16
2019-05-30T03:05:22.009Z,17
2019-05-30T03:06:22.069Z,19
2019-05-30T03:07:22.302Z,21
2019-05-30T03:08:22.243Z,22
2019-05-30T03:09:22.294Z,25
2019-05-30T03:10:22.352Z,27
2019-05-30T03:11:22.403Z,30
2019-05-30T03:12:22.482Z,35
2019-05-30T03:13:22.605Z,38
2019-05-30T03:14:22.651Z,42
2019-05-30T03:15:22.722Z,45
2019-05-30T03:16:22.812Z,47
2019-05-30T03:17:22.871Z,51
2019-05-30T03:18:22.973Z,53
2019-05-30T03:19:23.041Z,56
2019-05-30T03:20:23.648Z,59
2019-05-30T03:21:23.163Z,61
2019-05-30T03:22:23.230Z,64
2019-05-30T03:23:23.336Z,67
2019-05-30T03:24:23.500Z,72
2019-05-30T03:25:23.548Z,78
2019-05-30T03:26:23.619Z,86
2019-05-30T03:27:23.690Z,93
2019-05-30T03:28:23.785Z,102
2019-05-30T03:29:23.892Z,113
2019-05-30T03:30:27.823Z,121
2019-05-30T03:31:28.974Z,135
2019-05-30T03:33:01.537Z,146
2019-05-30T03:33:38.657Z,158
2019-05-30T03:34:28.106Z,173
2019-05-30T03:35:29.757Z,186
2019-05-30T03:36:30.389Z,202
2019-05-30T03:37:28.954Z,220
2019-05-30T03:38:24.392Z,245
2019-05-30T03:39:24.417Z,260
2019-05-30T03:40:25.650Z,279
2019-05-30T03:41:24.539Z,295
2019-05-30T03:42:24.643Z,307
2019-05-30T03:43:24.780Z,328
2019-05-30T03:44:24.911Z,333
2019-05-30T03:45:24.983Z,342
2019-05-30T03:46:25.043Z,345
2019-05-30T03:47:25.135Z,370
2019-05-30T03:48:25.188Z,379
2019-05-30T03:49:25.342Z,401
2019-05-30T03:50:25.280Z,426
2019-05-30T03:51:25.366Z,457
2019-05-30T03:52:25.490Z,487
2019-05-30T03:53:25.498Z,501
2019-05-30T03:54:25.573Z,508
2019-05-30T03:55:25.559Z,559
2019-05-30T03:56:25.677Z,567
2019-05-30T03:57:25.778Z,564
2019-05-30T03:58:25.902Z,568
2019-05-30T03:59:26.072Z,574
2019-05-30T04:00:26.055Z,564
2019-05-30T04:01:26.068Z,576
2019-05-30T04:02:26.209Z,592
2019-05-30T04:03:26.335Z,599
2019-05-30T04:04:26.532Z,596
2019-05-30T04:05:26.535Z,578
2019-05-30T04:06:26.671Z,553
2019-05-30T04:07:26.785Z,549
2019-05-30T04:08:26.941Z,561
2019-05-30T04:09:26.962Z,562
2019-05-30T04:10:26.961Z,555
2019-05-30T04:11:26.965Z,561
2019-05-30T04:12:27.066Z,550
2019-05-30T04:13:27.081Z,548
2019-05-30T04:14:27.248Z,540
2019-05-30T04:15:27.256Z,537
2019-05-30T04:16:27.361Z,545
2019-05-30T04:17:27.368Z,533
2019-05-30T04:18:27.495Z,519
2019-05-30T04:19:27.589Z,505
2019-05-30T04:20:27.742Z,512
2019-05-30T04:21:27.777Z,484
2019-05-30T04:22:27.924Z,478
2019-05-30T04:23:28.115Z,477
2019-05-30T04:24:28.141Z,464
2019-05-30T04:25:28.227Z,468
2019-05-30T04:26:28.259Z,473
2019-05-30T04:27:28.332Z,476
2019-05-30T04:28:28.434Z,487
2019-05-30T04:29:28.522Z,487
2019-05-30T04:30:28.645Z,518
2019-05-30T04:31:28.654Z,556
2019-05-30T04:32:28.762Z,611
2019-05-30T04:33:32.880Z,653
2019-05-30T04:34:29.004Z,721
2019-05-30T04:35:29.163Z,758
2019-05-30T04:36:29.120Z,795
2019-05-30T04:37:29.195Z,878
2019-05-30T04:38:29.114Z,884
2019-05-30T04:39:29.203Z,941
2019-05-30T04:40:29.285Z,953
2019-05-30T04:41:29.317Z,1019
2019-05-30T04:42:29.349Z,1036
2019-05-30T04:43:29.350Z,1082
2019-05-30T04:44:29.403Z,1114
2019-05-30T04:45:29.414Z,1188
2019-05-30T04:46:29.442Z,1229
2019-05-30T04:47:29.462Z,1222
2019-05-30T04:48:29.461Z,1262
2019-05-30T04:49:29.489Z,1312
2019-05-30T04:50:29.498Z,1372
2019-05-30T04:51:29.532Z,1372
2019-05-30T04:52:29.536Z,1396
2019-05-30T04:53:29.545Z,1416
2019-05-30T04:54:29.593Z,1484
2019-05-30T04:55:29.650Z,1560
2019-05-30T04:56:29.710Z,1626
2019-05-30T04:57:29.778Z,1707
2019-05-30T04:58:29.897Z,1741
2019-05-30T04:59:29.935Z,1736
2019-05-30T05:00:30.008Z,1749
2019-05-30T05:01:30.097Z,1815
2019-05-30T05:02:30.205Z,1877
2019-05-30T05:03:44.877Z,1918
2019-05-30T05:04:30.371Z,2003
2019-05-30T05:05:30.501Z,2077
2019-05-30T05:06:30.626Z,2020
2019-05-30T05:07:31.674Z,2032
2019-05-30T05:08:30.703Z,2102
2019-05-30T05:09:30.738Z,2114
2019-05-30T05:10:30.769Z,2115
2019-05-30T05:11:30.828Z,2123
2019-05-30T05:12:30.917Z,2119
2019-05-30T05:13:30.986Z,2125
2019-05-30T05:14:31.043Z,2117
2019-05-30T05:15:31.112Z,2106
2019-05-30T05:16:35.748Z,2019
2019-05-30T05:17:32.322Z,2072
2019-05-30T05:18:31.317Z,1946
2019-05-30T05:19:32.363Z,1887
2019-05-30T05:20:31.393Z,1841
2019-05-30T05:21:31.416Z,1735
2019-05-30T05:22:31.451Z,1747
2019-05-30T05:23:31.438Z,1715
2019-05-30T05:24:31.462Z,1731
2019-05-30T05:25:31.478Z,1825
2019-05-30T05:26:31.520Z,1910
2019-05-30T05:27:31.696Z,2030
2019-05-30T05:28:31.719Z,2101
2019-05-30T05:29:31.763Z,2323
2019-05-30T05:30:31.770Z,2421
2019-05-30T05:31:31.784Z,2593
2019-05-30T05:32:31.836Z,2544
2019-05-30T05:33:31.928Z,2557
2019-05-30T05:34:31.949Z,2572
2019-05-30T05:35:31.992Z,2584
2019-05-30T05:36:31.989Z,2502
2019-05-30T05:37:32.022Z,2415
2019-05-30T05:38:32.032Z,2439
2019-05-30T05:39:32.038Z,2518
2019-05-30T05:40:32.051Z,2730
2019-05-30T05:41:32.075Z,2931
2019-05-30T05:42:32.098Z,3180
2019-05-30T05:43:32.129Z,3577
2019-05-30T05:44:32.151Z,3827
2019-05-30T05:45:32.161Z,3922
2019-05-30T05:46:32.159Z,3998
2019-05-30T05:47:32.205Z,3974
2019-05-30T05:48:32.286Z,3906
2019-05-30T05:49:32.280Z,3897
2019-05-30T05:50:32.278Z,3866
2019-05-30T05:51:32.296Z,3726
2019-05-30T05:52:32.298Z,3611
2019-05-30T05:53:32.349Z,3442
2019-05-30T05:54:32.353Z,3453
2019-05-30T05:55:32.358Z,3415
2019-05-30T05:56:32.351Z,3452
2019-05-30T05:57:32.370Z,3599
2019-05-30T05:58:32.402Z,3715
2019-05-30T05:59:32.418Z,3848
2019-05-30T06:00:32.437Z,3892
2019-05-30T06:01:32.468Z,3911
2019-05-30T06:02:32.494Z,3954
2019-05-30T06:03:32.536Z,3989
2019-05-30T06:04:32.593Z,4075
2019-05-30T06:05:32.585Z,4106
2019-05-30T06:06:32.561Z,4076
2019-05-30T06:07:32.609Z,4079
2019-05-30T06:08:32.676Z,4204
2019-05-30T06:09:32.722Z,4091
2019-05-30T06:10:32.705Z,4247
2019-05-30T06:11:32.717Z,4241
2019-05-30T06:12:32.730Z,4122
2019-05-30T06:13:33.759Z,4021
2019-05-30T06:14:32.776Z,3904
2019-05-30T06:15:32.771Z,3853
2019-05-30T06:16:32.775Z,3825
2019-05-30T06:17:32.782Z,3844
2019-05-30T06:18:32.808Z,3850
2019-05-30T06:19:45.731Z,3725
2019-05-30T06:20:32.846Z,3649
2019-05-30T06:21:32.849Z,3554
2019-05-30T06:22:32.889Z,3529
2019-05-30T06:23:32.901Z,3548
2019-05-30T06:24:32.979Z,3661
2019-05-30T06:25:33.100Z,3653
2019-05-30T06:26:33.015Z,3697
2019-05-30T06:27:33.027Z,3780
2019-05-30T06:28:33.027Z,3970
2019-05-30T06:29:33.094Z,4103
2019-05-30T06:30:33.119Z,4513
2019-05-30T06:31:33.133Z,4994
2019-05-30T06:32:33.134Z,5032
2019-05-30T06:33:33.145Z,4843
2019-05-30T06:34:39.127Z,4575
2019-05-30T06:35:33.340Z,4315
2019-05-30T06:36:33.364Z,4114
2019-05-30T06:37:34.371Z,4181
2019-05-30T06:38:34.368Z,4299
2019-05-30T06:39:33.412Z,4296
2019-05-30T06:40:33.390Z,4499
2019-05-30T06:41:33.607Z,4735
2019-05-30T06:42:33.626Z,4848
2019-05-30T06:43:33.800Z,5062
2019-05-30T06:44:33.858Z,5031
2019-05-30T06:45:33.896Z,5125
2019-05-30T06:46:33.898Z,5180
2019-05-30T06:47:33.924Z,5333
2019-05-30T06:48:33.940Z,5531
2019-05-30T06:49:33.992Z,5689
2019-05-30T06:50:33.988Z,5391
2019-05-30T06:51:33.978Z,5127
2019-05-30T06:52:34.010Z,5067
2019-05-30T06:53:34.013Z,5053
2019-05-30T06:54:34.053Z,5142
2019-05-30T06:55:34.082Z,5231
2019-05-30T06:56:34.088Z,5107
2019-05-30T06:57:34.086Z,5131
2019-05-30T06:58:45.468Z,4927
2019-05-30T06:59:34.265Z,4810
2019-05-30T07:00:34.405Z,4980
2019-05-30T07:01:34.405Z,4924
2019-05-30T07:02:34.431Z,5054
2019-05-30T07:03:34.448Z,5329
2019-05-30T07:04:50.013Z,5323
2019-05-30T07:05:35.305Z,5549
2019-05-30T07:06:34.844Z,5690
2019-05-30T07:07:34.704Z,5555
2019-05-30T07:08:34.783Z,5795
2019-05-30T07:09:34.804Z,6310
2019-05-30T07:10:34.887Z,6772
2019-05-30T07:11:35.070Z,6949
2019-05-30T07:12:34.963Z,7010
2019-05-30T07:13:34.970Z,7366
2019-05-30T07:14:35.007Z,7124
2019-05-30T07:15:35.053Z,6644
2019-05-30T07:16:35.062Z,6293
2019-05-30T07:17:35.096Z,6121
2019-05-30T07:18:36.691Z,6079
2019-05-30T07:19:37.701Z,5658
2019-05-30T07:20:35.222Z,5253
2019-05-30T07:21:35.243Z,5275
2019-05-30T07:22:35.240Z,5265
2019-05-30T07:23:38.946Z,4765
2019-05-30T07:24:36.423Z,4938
2019-05-30T07:25:35.467Z,5359
2019-05-30T07:26:35.480Z,5585
2019-05-30T07:27:35.496Z,6039
2019-05-30T07:28:35.547Z,6307
2019-05-30T07:29:35.582Z,6378
2019-05-30T07:30:35.632Z,6300
2019-05-30T07:31:35.675Z,6520
2019-05-30T07:32:35.714Z,7207
2019-05-30T07:33:35.723Z,7345
2019-05-30T07:34:35.742Z,6912
2019-05-30T07:35:35.833Z,6865
2019-05-30T07:36:35.872Z,6520
2019-05-30T07:37:35.916Z,6877
2019-05-30T07:38:35.919Z,7111
2019-05-30T07:39:37.575Z,6749
2019-05-30T07:40:36.020Z,7082
2019-05-30T07:41:36.001Z,7464
2019-05-30T07:42:36.055Z,7559
2019-05-30T07:43:36.086Z,7271
2019-05-30T07:44:36.095Z,7178
2019-05-30T07:45:36.163Z,7568
2019-05-30T07:46:37.245Z,7853
2019-05-30T07:47:36.292Z,7488
2019-05-30T07:48:38.474Z,7827
2019-05-30T07:49:36.305Z,7662
2019-05-30T07:50:36.298Z,6859
2019-05-30T07:51:36.331Z,6706
2019-05-30T07:52:36.402Z,7687
2019-05-30T07:53:36.449Z,9033
2019-05-30T07:54:36.456Z,9641
2019-05-30T07:55:36.538Z,9828
2019-05-30T07:56:37.960Z,10481
2019-05-30T07:57:39.580Z,11771
2019-05-30T07:58:37.376Z,11586
2019-05-30T07:59:36.808Z,10812
2019-05-30T08:00:37.618Z,10694
2019-05-30T08:01:36.879Z,10438
2019-05-30T08:02:37.967Z,10533
2019-05-30T08:03:36.934Z,10550
2019-05-30T08:04:37.791Z,9731
2019-05-30T08:05:36.922Z,9491
2019-05-30T08:06:37.878Z,8201
2019-05-30T08:07:36.940Z,6798
2019-05-30T08:08:38.019Z,6463
2019-05-30T08:09:36.950Z,6242
2019-05-30T08:10:37.899Z,5681
2019-05-30T08:11:37.141Z,6014
2019-05-30T08:12:38.247Z,6033
2019-05-30T08:13:37.330Z,5853
2019-05-30T08:14:37.344Z,5432
2019-05-30T08:15:43.717Z,5596
2019-05-30T08:16:37.484Z,5446
2019-05-30T08:17:37.848Z,5326
2019-05-30T08:18:37.919Z,5116
2019-05-30T08:19:38.127Z,5374
2019-05-30T08:20:38.022Z,5912
2019-05-30T08:21:38.284Z,5913
2019-05-30T08:22:38.295Z,5869
2019-05-30T08:23:38.380Z,6151
2019-05-30T08:24:38.829Z,6590
2019-05-30T08:25:38.465Z,6534
2019-05-30T08:26:38.446Z,6827
2019-05-30T08:27:38.637Z,7489
2019-05-30T08:28:38.580Z,7830
2019-05-30T08:29:38.525Z,7906
2019-05-30T08:30:38.691Z,8488
2019-05-30T08:31:38.784Z,9413
2019-05-30T08:32:38.889Z,9667
2019-05-30T08:33:37.759Z,9305
2019-05-30T08:34:38.826Z,7238
2019-05-30T08:35:47.381Z,7409
2019-05-30T08:36:39.089Z,8032
2019-05-30T08:37:39.240Z,7799
2019-05-30T08:38:39.300Z,7669
2019-05-30T08:39:39.284Z,7767
2019-05-30T08:40:39.462Z,7907
2019-05-30T08:41:39.569Z,8659
2019-05-30T08:42:39.903Z,8944
2019-05-30T08:43:39.294Z,7933
2019-05-30T08:44:40.034Z,7741
2019-05-30T08:45:39.907Z,7495
2019-05-30T08:46:39.907Z,7803
2019-05-30T08:47:38.799Z,8608
2019-05-30T08:48:38.830Z,8812
2019-05-30T08:49:38.890Z,9435
2019-05-30T08:50:43.057Z,9186
2019-05-30T08:51:39.013Z,8509
2019-05-30T08:52:40.649Z,9670
2019-05-30T08:53:39.145Z,11614
2019-05-30T08:54:39.162Z,10199
2019-05-30T08:55:39.194Z,11221
2019-05-30T08:56:39.205Z,14024
2019-05-30T08:57:39.229Z,13094
2019-05-30T08:58:39.305Z,13094
2019-05-30T08:59:39.338Z,13127
2019-05-30T09:00:39.452Z,15731
2019-05-30T09:01:40.438Z,12569
2019-05-30T09:02:40.752Z,13181
2019-05-30T09:03:40.072Z,8312
2019-05-30T09:04:39.871Z,7269
2019-05-30T09:05:53.402Z,8010
2019-05-30T09:06:39.967Z,9394
2019-05-30T09:07:40.198Z,8516
2019-05-30T09:08:40.082Z,8280
2019-05-30T09:09:40.147Z,6822
2019-05-30T09:10:40.806Z,6675
2019-05-30T09:11:40.513Z,6533
2019-05-30T09:12:42.177Z,6538
2019-05-30T09:13:40.385Z,7237
2019-05-30T09:14:41.142Z,7570
2019-05-30T09:15:41.048Z,8280
2019-05-30T09:16:40.220Z,11267
2019-05-30T09:17:40.930Z,13857
2019-05-30T09:18:41.574Z,13652
2019-05-30T09:19:41.444Z,16960
2019-05-30T09:20:41.875Z,20112
2019-05-30T09:21:41.400Z,16512
2019-05-30T09:22:41.773Z,16400
2019-05-30T09:23:42.071Z,21720
2019-05-30T09:24:41.949Z,20416
2019-05-30T09:25:41.489Z,12497
2019-05-30T09:26:45.187Z,8847
2019-05-30T09:27:42.610Z,8323
2019-05-30T09:28:42.112Z,8377
2019-05-30T09:29:41.691Z,9494
2019-05-30T09:30:41.696Z,9657
2019-05-30T09:31:41.676Z,9461
2019-05-30T09:32:41.725Z,9403
2019-05-30T09:33:44.623Z,8238
2019-05-30T09:34:42.928Z,7703
2019-05-30T09:35:42.976Z,7916
2019-05-30T09:36:42.653Z,8557
2019-05-30T09:37:42.326Z,7377
2019-05-30T09:38:42.204Z,7593
2019-05-30T09:39:41.833Z,7577
2019-05-30T09:40:42.095Z,6835
2019-05-30T09:41:42.215Z,6501
2019-05-30T09:42:42.962Z,7124
2019-05-30T09:43:42.881Z,7190
2019-05-30T09:44:42.241Z,6986
2019-05-30T09:45:42.359Z,7964
2019-05-30T09:46:42.529Z,7202
2019-05-30T09:47:43.636Z,7266
2019-05-30T09:50:22.712Z,7584
2019-05-30T09:51:36.555Z,6998
2019-05-30T09:52:36.561Z,7859
2019-05-30T09:53:36.559Z,8400
2019-05-30T09:54:36.607Z,8441
2019-05-30T09:55:36.617Z,7509
2019-05-30T09:56:36.609Z,7285
2019-05-30T09:57:36.641Z,6488
2019-05-30T09:58:36.653Z,6056
2019-05-30T09:59:36.667Z,5155
2019-05-30T10:00:36.664Z,4974
2019-05-30T10:01:36.668Z,5042
2019-05-30T10:02:36.675Z,5229
2019-05-30T10:03:36.681Z,4879
2019-05-30T10:04:36.718Z,4383
2019-05-30T10:05:36.682Z,4735
2019-05-30T10:06:36.845Z,4692
2019-05-30T10:07:36.838Z,4363
2019-05-30T10:08:36.845Z,4843
2019-05-30T10:09:36.970Z,4836
2019-05-30T10:10:37.034Z,4925
2019-05-30T10:11:37.032Z,4746
2019-05-30T10:12:37.027Z,4923
2019-05-30T10:13:37.048Z,5295
2019-05-30T10:14:37.081Z,4880
2019-05-30T10:15:37.177Z,4681
2019-05-30T10:16:38.167Z,4535
2019-05-30T10:17:38.272Z,4789
2019-05-30T10:18:37.264Z,4906
2019-05-30T10:19:38.312Z,5524
2019-05-30T10:20:37.356Z,5591
2019-05-30T10:21:38.428Z,5733
2019-05-30T10:22:37.414Z,6237
2019-05-30T10:23:38.434Z,6232
2019-05-30T10:24:37.463Z,6004
2019-05-30T10:25:38.668Z,6275
2019-05-30T10:26:38.645Z,6161
2019-05-30T10:27:37.773Z,5838
2019-05-30T10:28:38.808Z,6045
2019-05-30T10:29:37.788Z,5476
2019-05-30T10:30:38.878Z,5140
2019-05-30T10:31:37.880Z,5302
2019-05-30T10:32:37.895Z,5410
2019-05-30T10:33:38.892Z,5597
2019-05-30T10:34:38.057Z,5456
2019-05-30T10:35:39.128Z,5210
2019-05-30T10:36:44.017Z,6054
2019-05-30T10:37:38.257Z,6411
2019-05-30T10:38:38.254Z,6440
2019-05-30T10:39:38.315Z,7478
2019-05-30T10:40:38.339Z,7280
2019-05-30T10:41:38.462Z,8343
2019-05-30T10:42:38.501Z,10189
2019-05-30T10:43:38.510Z,10566
2019-05-30T10:44:38.505Z,11137
2019-05-30T10:45:39.517Z,10496
2019-05-30T10:46:38.562Z,10131
2019-05-30T10:47:38.563Z,9788
2019-05-30T10:48:38.565Z,11368
2019-05-30T10:49:38.553Z,14551
2019-05-30T10:50:38.727Z,20792
2019-05-30T10:51:38.800Z,24280
2019-05-30T10:52:38.838Z,23528
2019-05-30T10:53:38.843Z,25680
2019-05-30T10:54:38.845Z,20480
2019-05-30T10:55:38.862Z,18672
2019-05-30T10:56:38.977Z,13910
2019-05-30T10:57:39.027Z,11318
2019-05-30T10:58:39.023Z,10412
2019-05-30T10:59:39.039Z,9660
2019-05-30T11:00:39.051Z,7866
2019-05-30T11:01:39.135Z,7507
2019-05-30T11:02:39.134Z,7743
2019-05-30T11:03:39.140Z,7835
2019-05-30T11:04:39.302Z,7470
2019-05-30T11:05:40.368Z,7651
2019-05-30T11:06:39.367Z,7077
2019-05-30T11:07:52.995Z,7871
2019-05-30T11:08:40.453Z,8515
2019-05-30T11:09:39.430Z,8975
2019-05-30T11:10:39.475Z,9803
2019-05-30T11:11:39.482Z,8387
2019-05-30T11:12:39.544Z,8454
2019-05-30T11:13:40.559Z,9707
2019-05-30T11:14:39.565Z,11637
2019-05-30T11:15:40.570Z,11525
2019-05-30T11:16:39.728Z,9051
2019-05-30T11:17:40.757Z,7378
2019-05-30T11:18:39.989Z,7155
2019-05-30T11:19:39.841Z,6800
2019-05-30T11:20:39.872Z,7246
2019-05-30T11:21:39.913Z,7938
2019-05-30T11:22:40.011Z,8343
2019-05-30T11:23:40.034Z,6838
2019-05-30T11:24:40.042Z,5881
2019-05-30T11:25:40.087Z,6046
2019-05-30T11:26:40.113Z,6131
2019-05-30T11:27:40.181Z,6709
2019-05-30T11:28:40.205Z,7043
2019-05-30T11:29:40.234Z,7188
2019-05-30T11:30:40.236Z,8072
2019-05-30T11:31:40.931Z,8793
2019-05-30T11:32:43.314Z,7734
2019-05-30T11:33:40.707Z,7544
2019-05-30T11:34:41.016Z,8704
2019-05-30T11:35:44.708Z,7742
2019-05-30T11:36:40.722Z,7533
2019-05-30T11:37:41.163Z,7496
2019-05-30T11:38:41.066Z,7557
2019-05-30T11:39:41.115Z,6962
2019-05-30T11:40:41.162Z,7374
2019-05-30T11:41:41.176Z,7955
2019-05-30T11:42:41.189Z,8028
2019-05-30T11:43:41.252Z,8240
2019-05-30T11:44:41.293Z,8279
2019-05-30T11:45:41.415Z,8099
2019-05-30T11:46:41.536Z,8265
2019-05-30T11:47:41.413Z,11190
2019-05-30T11:48:41.449Z,11942
2019-05-30T11:49:41.468Z,10893
2019-05-30T11:50:41.494Z,10565
2019-05-30T11:51:41.554Z,12862
2019-05-30T11:52:41.571Z,14850
2019-05-30T11:53:41.650Z,15201
2019-05-30T11:54:41.667Z,15827
2019-05-30T11:55:41.738Z,12775
2019-05-30T11:56:41.773Z,11790
2019-05-30T11:57:41.820Z,12728
2019-05-30T11:58:41.903Z,13589
2019-05-30T11:59:41.917Z,17176
2019-05-30T12:00:41.954Z,17000
2019-05-30T12:01:41.966Z,16130
2019-05-30T12:02:41.997Z,17072
2019-05-30T12:03:42.053Z,14027
2019-05-30T12:04:42.084Z,12384
2019-05-30T12:05:42.098Z,9982
2019-05-30T12:06:42.137Z,10627
2019-05-30T12:07:42.183Z,11234
2019-05-30T12:08:42.250Z,11808
2019-05-30T12:09:42.316Z,10265
2019-05-30T12:10:42.321Z,9130
2019-05-30T12:11:42.364Z,9456
2019-05-30T12:12:42.454Z,8152
2019-05-30T12:13:42.500Z,10792
2019-05-30T12:14:42.552Z,10670
2019-05-30T12:15:42.590Z,8590
2019-05-30T12:16:42.616Z,6428
2019-05-30T12:17:42.623Z,6184
2019-05-30T12:18:42.670Z,4703
2019-05-30T12:19:42.734Z,4586
2019-05-30T12:20:42.754Z,5449
2019-05-30T12:21:42.763Z,5212
2019-05-30T12:22:42.792Z,5473
2019-05-30T12:23:42.803Z,4313
2019-05-30T12:24:42.859Z,3431
2019-05-30T12:25:42.869Z,3083
2019-05-30T12:26:42.872Z,3512
2019-05-30T12:27:42.911Z,4080
2019-05-30T12:28:42.932Z,4727
2019-05-30T12:29:42.987Z,5450
2019-05-30T12:30:55.652Z,6358
2019-05-30T12:31:43.022Z,5312
2019-05-30T12:32:43.058Z,3881
2019-05-30T12:33:43.080Z,3271
2019-05-30T12:34:43.148Z,3118
2019-05-30T12:35:43.211Z,2744
2019-05-30T12:36:43.260Z,2595
2019-05-30T12:37:53.884Z,2829
2019-05-30T12:38:43.303Z,2614
2019-05-30T12:39:43.311Z,2468
2019-05-30T12:40:43.366Z,2714
2019-05-30T12:41:43.411Z,2914
2019-05-30T12:42:43.442Z,2804
2019-05-30T12:43:43.479Z,2805
2019-05-30T12:44:43.511Z,2805
2019-05-30T12:45:43.567Z,3023
2019-05-30T12:46:43.629Z,3019
2019-05-30T12:47:43.684Z,3151
2019-05-30T12:48:43.717Z,3156
2019-05-30T12:49:43.747Z,2642
2019-05-30T12:50:43.817Z,2638
2019-05-30T12:51:43.838Z,2754
2019-05-30T12:52:43.856Z,2719
2019-05-30T12:53:43.855Z,2910
2019-05-30T12:54:43.897Z,3276
2019-05-30T12:55:43.943Z,3400
2019-05-30T12:56:43.946Z,3718
2019-05-30T12:57:43.970Z,4254
2019-05-30T12:58:44.029Z,4435
2019-05-30T12:59:44.049Z,4999
2019-05-30T13:00:44.106Z,4852
2019-05-30T13:01:44.135Z,4639
2019-05-30T13:02:44.167Z,4743
2019-05-30T13:03:44.181Z,4786
2019-05-30T13:04:44.231Z,4386
2019-05-30T13:05:44.263Z,4093
2019-05-30T13:06:44.360Z,3882
2019-05-30T13:07:44.362Z,3724
2019-05-30T13:08:44.364Z,3704
2019-05-30T13:09:44.395Z,3920
2019-05-30T13:10:44.454Z,3854
2019-05-30T13:11:44.493Z,4195
2019-05-30T13:12:44.514Z,4949
2019-05-30T13:13:44.541Z,5628
2019-05-30T13:14:44.574Z,5660
2019-05-30T13:15:44.567Z,5811
2019-05-30T13:16:44.627Z,6497
2019-05-30T13:17:44.637Z,7272
2019-05-30T13:18:44.669Z,7568
2019-05-30T13:19:44.723Z,7560
2019-05-30T13:20:44.758Z,6828
2019-05-30T13:21:44.793Z,6289
2019-05-30T13:22:44.804Z,5282
2019-05-30T13:23:44.838Z,6174
2019-05-30T13:24:44.865Z,7140
2019-05-30T13:25:44.862Z,6970
2019-05-30T13:26:44.994Z,5727
2019-05-30T13:27:45.031Z,5410
2019-05-30T13:28:45.046Z,5147
2019-05-30T13:29:45.079Z,4975
2019-05-30T13:30:45.104Z,4220
2019-05-30T13:31:45.157Z,4055
2019-05-30T13:32:45.396Z,4043
2019-05-30T13:33:45.246Z,3944
2019-05-30T13:34:45.268Z,3711
2019-05-30T13:35:45.293Z,3667
2019-05-30T13:36:45.323Z,3782
2019-05-30T13:37:45.356Z,3885
2019-05-30T13:38:45.367Z,4023
2019-05-30T13:39:45.388Z,4172
2019-05-30T13:40:46.386Z,4022